Wawaka, Indiana
Current Conditions -  °F | °C
As of 6:12 AM on Thursday 23 Oct 2014 (Local Time) from KGSH Reporting Station
Moderate Fog Moderate Fog  
Wind Chill: 29°   Ceiling: 200
Heat Index: 29°   Visibility: 0.25mi
Dew Point: 28°   Wind: 0mph
Humidity: 96%   Direction: NA
Pressure: 30.26"   Gusts: NA
Location:  41.46°N, 85.48°W
Report Text: KGSH 231012Z AUTO 00000KT 1/4SM FZFG VV002 M02/M02 A3026 RMK AO2 T10171022
Loading
Personal Weather Stations






























Interactive Weather Map
Tropical Storm Tracking
New forecast layout! Learn more

10-Day Weather Forecast

Advertisements
Track Severe Weather on mobile